createdAt,value
2018-07-27T00:01:36.876Z,4.90
2018-07-27T00:04:06.438Z,5.10
2018-07-27T00:06:35.395Z,4.80
2018-07-27T00:09:07.769Z,5.00
2018-07-27T00:11:37.098Z,5.07
2018-07-27T00:14:06.237Z,5.27
2018-07-27T00:16:35.212Z,5.13
2018-07-27T00:19:04.419Z,4.70
2018-07-27T00:21:33.558Z,5.13
2018-07-27T00:24:02.492Z,5.43
2018-07-27T00:26:31.600Z,5.33
2018-07-27T00:29:00.420Z,5.33
2018-07-27T00:31:29.123Z,4.90
2018-07-27T00:33:58.054Z,5.23
2018-07-27T00:36:27.166Z,4.97
2018-07-27T00:38:56.033Z,4.87
2018-07-27T00:41:24.989Z,5.27
2018-07-27T00:43:54.022Z,5.30
2018-07-27T00:46:23.241Z,4.80
2018-07-27T00:48:52.350Z,5.00
2018-07-27T00:51:21.463Z,5.20
2018-07-27T00:53:50.540Z,5.27
2018-07-27T00:56:19.585Z,5.53
2018-07-27T00:58:48.724Z,5.90
2018-07-27T01:01:17.827Z,5.60
2018-07-27T01:03:46.927Z,5.43
2018-07-27T01:06:16.087Z,5.60
2018-07-27T01:08:44.943Z,5.37
2018-07-27T01:11:13.859Z,5.97
2018-07-27T01:13:42.653Z,5.77
2018-07-27T01:16:11.628Z,5.20
2018-07-27T01:18:40.771Z,5.63
2018-07-27T01:21:10.529Z,5.23
2018-07-27T01:23:39.677Z,5.10
2018-07-27T01:26:08.792Z,6.17
2018-07-27T01:28:37.919Z,5.77
2018-07-27T01:31:06.979Z,5.87
2018-07-27T01:33:36.115Z,5.53
2018-07-27T01:36:05.362Z,5.80
2018-07-27T01:38:34.482Z,6.30
2018-07-27T01:41:03.544Z,5.90
2018-07-27T01:43:32.811Z,5.77
2018-07-27T01:46:01.918Z,5.80
2018-07-27T01:48:30.777Z,6.10
2018-07-27T01:50:59.710Z,6.10
2018-07-27T01:53:28.882Z,6.10
2018-07-27T01:55:58.001Z,6.13
2018-07-27T01:58:27.091Z,5.80
2018-07-27T02:00:55.979Z,6.33
2018-07-27T02:03:24.875Z,5.63
2018-07-27T02:05:53.885Z,6.30
2018-07-27T02:08:22.940Z,6.07
2018-07-27T02:10:52.050Z,6.30
2018-07-27T02:13:21.603Z,6.20
2018-07-27T02:15:50.573Z,6.63
2018-07-27T02:18:19.595Z,6.23
2018-07-27T02:20:48.699Z,6.33
2018-07-27T02:23:17.810Z,7.17
2018-07-27T02:25:46.945Z,6.63
2018-07-27T02:28:16.512Z,6.67
2018-07-27T02:30:45.652Z,6.20
2018-07-27T02:33:14.714Z,6.33
2018-07-27T02:35:43.518Z,6.20
2018-07-27T02:38:12.489Z,6.57
2018-07-27T02:40:41.563Z,7.00
2018-07-27T02:43:10.602Z,6.70
2018-07-27T02:45:39.669Z,7.10
2018-07-27T02:48:08.534Z,7.07
2018-07-27T02:50:37.435Z,6.40
2018-07-27T02:53:06.367Z,6.90
2018-07-27T02:55:35.079Z,6.73
2018-07-27T02:58:04.006Z,6.60
2018-07-27T03:00:33.162Z,7.13
2018-07-27T03:03:02.241Z,7.33
2018-07-27T03:05:31.315Z,7.07
2018-07-27T03:08:00.483Z,7.33
2018-07-27T03:10:29.647Z,7.00
2018-07-27T03:12:58.808Z,7.10
2018-07-27T03:15:27.930Z,6.90
2018-07-27T03:17:57.040Z,7.23
2018-07-27T03:20:26.101Z,7.63
2018-07-27T03:22:55.189Z,7.87
2018-07-27T03:25:25.033Z,7.13
2018-07-27T03:27:54.149Z,7.40
2018-07-27T03:30:23.342Z,7.40
2018-07-27T03:32:52.521Z,7.33
2018-07-27T03:35:21.656Z,7.50
2018-07-27T03:37:51.094Z,7.50
2018-07-27T03:40:20.130Z,7.70
2018-07-27T03:42:49.254Z,8.23
2018-07-27T03:45:18.408Z,7.73
2018-07-27T03:47:47.451Z,8.00
2018-07-27T03:50:16.893Z,7.73
2018-07-27T03:52:45.870Z,7.63
2018-07-27T03:55:14.989Z,7.93
2018-07-27T03:57:44.014Z,8.17
2018-07-27T04:00:14.031Z,8.33
2018-07-27T04:02:43.560Z,8.43
2018-07-27T04:05:12.377Z,8.07
2018-07-27T04:07:41.381Z,8.47
2018-07-27T04:10:10.431Z,8.67
2018-07-27T04:12:39.289Z,8.17
2018-07-27T04:15:08.211Z,8.10
2018-07-27T04:17:37.037Z,7.77
2018-07-27T04:20:06.370Z,8.73
2018-07-27T04:22:35.462Z,8.00
2018-07-27T04:25:04.583Z,8.57
2018-07-27T04:27:33.617Z,8.50
2018-07-27T04:30:02.646Z,9.10
2018-07-27T04:32:31.721Z,8.80
2018-07-27T04:35:00.810Z,9.10
2018-07-27T04:37:29.907Z,8.63
2018-07-27T04:39:58.965Z,9.00
2018-07-27T04:45:03.353Z,9.30
2018-07-27T04:47:32.520Z,9.33
2018-07-27T04:50:01.620Z,9.10
2018-07-27T04:52:31.164Z,8.53
2018-07-27T04:55:00.312Z,9.03
2018-07-27T04:57:29.363Z,8.67
2018-07-27T04:59:58.477Z,8.13
2018-07-27T05:02:27.505Z,8.17
2018-07-27T05:04:56.603Z,9.33
2018-07-27T05:07:25.745Z,8.90
2018-07-27T05:09:54.832Z,8.23
2018-07-27T05:12:23.968Z,7.73
2018-07-27T05:14:53.069Z,8.33
2018-07-27T05:17:22.196Z,8.00
2018-07-27T05:19:51.214Z,8.87
2018-07-27T05:22:20.329Z,8.00
2018-07-27T05:24:49.380Z,8.33
2018-07-27T05:27:18.481Z,8.47
2018-07-27T05:29:48.218Z,8.87
2018-07-27T05:32:17.331Z,8.40
2018-07-27T05:34:46.411Z,8.10
2018-07-27T05:37:15.275Z,7.53
2018-07-27T05:52:44.339Z,8.87
2018-07-27T05:55:13.451Z,7.90
2018-07-27T05:57:42.611Z,8.43
2018-07-27T06:00:11.939Z,8.23
2018-07-27T06:02:40.984Z,8.27
2018-07-27T06:05:09.899Z,7.90
2018-07-27T06:07:39.014Z,8.23
2018-07-27T06:10:08.353Z,7.40
2018-07-27T06:12:37.526Z,7.93
2018-07-27T06:15:07.272Z,8.10
2018-07-27T06:17:36.415Z,8.00
2018-07-27T06:20:07.071Z,8.43
2018-07-27T06:22:36.426Z,8.13
2018-07-27T06:25:05.515Z,7.97
2018-07-27T06:27:34.631Z,7.07
2018-07-27T06:30:04.047Z,8.03
2018-07-27T06:32:33.085Z,7.87
2018-07-27T06:35:02.213Z,7.47
2018-07-27T06:37:31.339Z,7.00
2018-07-27T06:40:00.593Z,7.27
2018-07-27T06:42:29.669Z,7.30
2018-07-27T06:44:58.789Z,7.50
2018-07-27T06:47:27.743Z,7.50
2018-07-27T06:49:56.699Z,8.10
2018-07-27T06:52:25.599Z,7.43
2018-07-27T06:54:55.091Z,7.90
2018-07-27T06:57:23.867Z,7.63
2018-07-27T06:59:52.825Z,7.87
2018-07-27T07:02:21.944Z,7.87
2018-07-27T07:04:51.039Z,7.10
2018-07-27T07:07:20.273Z,7.77
2018-07-27T07:09:49.350Z,7.00
2018-07-27T07:12:18.202Z,6.63
2018-07-27T07:14:47.135Z,7.27
2018-07-27T07:17:16.023Z,6.93
2018-07-27T07:19:45.039Z,7.00
2018-07-27T07:22:14.156Z,7.00
2018-07-27T07:24:43.280Z,8.63
2018-07-27T07:27:12.359Z,9.50
2018-07-27T07:29:41.433Z,8.13
2018-07-27T07:32:10.479Z,8.17
2018-07-27T07:34:39.593Z,7.10
2018-07-27T07:37:08.764Z,7.70
2018-07-27T07:39:37.567Z,6.67
2018-07-27T07:42:06.713Z,6.40
2018-07-27T07:44:35.762Z,6.37
2018-07-27T07:47:04.608Z,6.13
2018-07-27T07:49:33.620Z,7.00
2018-07-27T07:52:02.483Z,6.60
2018-07-27T07:54:31.507Z,6.57
2018-07-27T07:57:00.597Z,6.40
2018-07-27T07:59:29.712Z,6.07
2018-07-27T08:01:58.528Z,7.03
2018-07-27T08:04:27.532Z,5.73
2018-07-27T08:06:56.559Z,5.93
2018-07-27T08:09:25.757Z,5.60
2018-07-27T08:11:54.737Z,5.70
2018-07-27T08:14:23.787Z,5.60
2018-07-27T08:16:52.910Z,6.10
2018-07-27T08:19:21.974Z,5.40
2018-07-27T08:21:51.113Z,5.17
2018-07-27T08:24:20.273Z,5.60
2018-07-27T08:26:50.640Z,6.80
2018-07-27T08:29:21.095Z,9.90
2018-07-27T08:31:50.974Z,27.40
2018-07-27T08:34:20.830Z,5.33
2018-07-27T08:36:50.311Z,5.60
2018-07-27T08:39:20.460Z,5.50
2018-07-27T08:41:49.425Z,4.87
2018-07-27T08:44:19.875Z,5.10
2018-07-27T08:46:49.054Z,5.90
2018-07-27T08:49:17.854Z,5.43
2018-07-27T08:51:46.914Z,5.20
2018-07-27T08:54:16.026Z,5.40
2018-07-27T08:56:45.519Z,6.03
2018-07-27T08:59:15.230Z,12.20
2018-07-27T09:01:44.323Z,6.17
2018-07-27T09:04:13.688Z,21.40
2018-07-27T09:06:42.698Z,5.30
2018-07-27T09:09:13.506Z,4.63
2018-07-27T09:11:42.613Z,4.70
2018-07-27T09:14:11.650Z,5.20
2018-07-27T09:16:41.117Z,5.73
2018-07-27T09:19:10.152Z,5.00
2018-07-27T09:21:39.004Z,4.33
2018-07-27T09:24:07.997Z,4.17
2018-07-27T09:26:36.924Z,4.40
2018-07-27T09:29:05.911Z,5.30
2018-07-27T09:31:35.512Z,4.87
2018-07-27T09:34:04.546Z,4.80
2018-07-27T09:36:34.746Z,4.57
2018-07-27T09:39:06.095Z,4.30
2018-07-27T09:41:35.755Z,4.17
2018-07-27T09:44:04.900Z,4.43
2018-07-27T09:46:38.517Z,4.33
2018-07-27T09:49:07.625Z,3.97
2018-07-27T09:51:37.484Z,3.93
2018-07-27T09:54:07.704Z,4.17
2018-07-27T09:56:39.250Z,3.67
2018-07-27T09:59:26.210Z,4.17
2018-07-27T10:01:56.622Z,4.40
2018-07-27T10:04:25.785Z,4.03
2018-07-27T10:06:55.186Z,4.10
2018-07-27T10:09:25.310Z,4.40
2018-07-27T10:11:54.292Z,4.40
2018-07-27T10:14:23.707Z,4.10
2018-07-27T10:16:53.597Z,4.50
2018-07-27T10:19:23.507Z,3.63
2018-07-27T10:21:52.803Z,4.27
2018-07-27T10:24:23.944Z,4.17
2018-07-27T10:26:53.133Z,4.40
2018-07-27T10:29:22.409Z,4.30
2018-07-27T10:31:52.758Z,4.37
2018-07-27T10:34:23.625Z,4.00
2018-07-27T10:36:53.037Z,4.10
2018-07-27T10:39:22.306Z,4.20
2018-07-27T10:41:51.442Z,3.90
2018-07-27T10:44:23.869Z,4.20
2018-07-27T10:46:54.446Z,4.10
2018-07-27T10:49:24.549Z,4.10
2018-07-27T10:51:54.150Z,4.00
2018-07-27T10:54:24.598Z,3.70
2018-07-27T10:56:55.553Z,4.00
2018-07-27T10:59:25.568Z,4.00
2018-07-27T11:01:56.218Z,3.80
2018-07-27T11:04:25.662Z,4.00
2018-07-27T11:06:55.287Z,4.00
2018-07-27T11:09:24.704Z,4.60
2018-07-27T11:11:54.869Z,3.87
2018-07-27T11:14:24.497Z,4.50
2018-07-27T11:16:54.002Z,4.83
2018-07-27T11:19:23.883Z,3.97
2018-07-27T11:21:54.220Z,4.27
2018-07-27T11:24:24.644Z,4.30
2018-07-27T11:26:55.036Z,3.50
2018-07-27T11:29:25.123Z,3.80
2018-07-27T11:31:54.483Z,3.70
2018-07-27T11:34:23.614Z,3.83
2018-07-27T11:36:52.887Z,3.60
2018-07-27T11:39:21.690Z,3.70
2018-07-27T11:41:50.750Z,3.40
2018-07-27T11:44:19.950Z,3.67
2018-07-27T11:46:49.072Z,3.87
2018-07-27T11:49:17.993Z,3.80
2018-07-27T11:51:47.016Z,4.03
2018-07-27T11:54:16.300Z,4.00
2018-07-27T11:56:45.313Z,3.40
2018-07-27T11:59:14.427Z,3.70
2018-07-27T12:01:43.554Z,3.30
2018-07-27T12:04:12.726Z,3.77
2018-07-27T12:06:42.257Z,3.77
2018-07-27T12:09:12.357Z,3.47
2018-07-27T12:11:41.295Z,3.70
2018-07-27T12:14:10.582Z,3.83
2018-07-27T12:16:39.592Z,3.60
2018-07-27T12:19:08.695Z,4.03
2018-07-27T12:21:37.979Z,4.20
2018-07-27T12:24:07.579Z,4.53
2018-07-27T12:26:36.759Z,3.40
2018-07-27T12:29:05.790Z,3.30
2018-07-27T12:31:34.889Z,3.60
2018-07-27T12:34:03.933Z,3.83
2018-07-27T12:36:33.155Z,3.47
2018-07-27T12:39:02.066Z,4.00
2018-07-27T12:41:30.977Z,4.37
2018-07-27T12:43:59.830Z,3.33
2018-07-27T12:46:28.806Z,3.30
2018-07-27T12:48:58.033Z,3.57
2018-07-27T12:51:27.168Z,3.50
2018-07-27T12:53:56.311Z,3.30
2018-07-27T12:56:25.373Z,3.70
2018-07-27T12:58:54.580Z,3.20
2018-07-27T13:01:23.927Z,3.30
2018-07-27T13:03:53.186Z,3.47
2018-07-27T13:06:22.419Z,3.70
2018-07-27T13:08:51.498Z,3.77
2018-07-27T13:11:20.574Z,4.30
2018-07-27T13:13:49.647Z,4.00
2018-07-27T13:16:19.652Z,3.80
2018-07-27T13:18:48.880Z,4.00
2018-07-27T13:21:18.048Z,3.50
2018-07-27T13:23:55.579Z,3.73
2018-07-27T13:26:24.767Z,3.20
2018-07-27T13:28:53.812Z,3.30
2018-07-27T13:31:56.914Z,3.30
2018-07-27T13:34:50.720Z,3.73
2018-07-27T13:37:20.679Z,2.93
2018-07-27T13:39:50.420Z,3.50
2018-07-27T13:42:20.642Z,3.50
2018-07-27T13:44:49.380Z,4.10
2018-07-27T13:47:18.847Z,3.63
2018-07-27T13:49:48.090Z,3.47
2018-07-27T13:52:17.124Z,3.77
2018-07-27T13:54:46.275Z,3.73
2018-07-27T13:57:15.432Z,3.70
2018-07-27T13:59:44.654Z,3.80
2018-07-27T14:02:13.850Z,4.00
2018-07-27T14:04:43.450Z,4.00
2018-07-27T14:07:13.171Z,3.17
2018-07-27T14:09:42.235Z,3.63
2018-07-27T14:12:11.412Z,3.80
2018-07-27T14:14:40.505Z,4.20
2018-07-27T14:17:09.516Z,3.83
2018-07-27T14:19:38.654Z,3.80
2018-07-27T14:22:07.853Z,4.07
2018-07-27T14:24:36.666Z,3.30
2018-07-27T14:27:05.415Z,3.70
2018-07-27T14:29:34.345Z,3.53
2018-07-27T14:32:03.362Z,4.13
2018-07-27T14:34:32.444Z,4.07
2018-07-27T14:37:01.601Z,3.77
2018-07-27T14:39:30.702Z,3.63
2018-07-27T14:41:59.574Z,3.67
2018-07-27T14:44:28.593Z,5.33
2018-07-27T14:46:57.630Z,4.43
2018-07-27T14:49:26.722Z,4.57
2018-07-27T14:51:55.844Z,3.57
2018-07-27T14:54:24.804Z,3.80
2018-07-27T14:56:53.768Z,3.70
2018-07-27T14:59:22.846Z,4.27
2018-07-27T15:01:51.759Z,3.80
2018-07-27T15:04:20.666Z,3.80
2018-07-27T15:06:49.620Z,3.40
2018-07-27T15:09:18.758Z,3.13
2018-07-27T15:11:47.875Z,3.30
2018-07-27T15:14:16.880Z,3.20
2018-07-27T15:16:45.740Z,3.17
2018-07-27T15:19:14.656Z,3.93
2018-07-27T15:21:43.888Z,3.23
2018-07-27T15:24:12.962Z,3.37
2018-07-27T15:26:41.811Z,4.10
2018-07-27T15:29:10.796Z,3.30
2018-07-27T15:31:39.842Z,3.47
2018-07-27T15:34:08.923Z,3.70
2018-07-27T15:36:37.804Z,4.07
2018-07-27T15:39:07.894Z,3.63
2018-07-27T15:41:37.441Z,3.67
2018-07-27T15:44:06.312Z,3.50
2018-07-27T15:46:35.315Z,3.90
2018-07-27T15:49:04.096Z,3.50
2018-07-27T15:51:33.061Z,3.53
2018-07-27T15:54:02.143Z,3.80
2018-07-27T15:56:31.248Z,3.50
2018-07-27T15:59:00.372Z,3.43
2018-07-27T16:01:29.187Z,3.80
2018-07-27T16:03:57.991Z,4.07
2018-07-27T16:06:27.319Z,3.43
2018-07-27T16:08:56.466Z,4.20
2018-07-27T16:11:25.987Z,3.90
2018-07-27T16:13:55.754Z,4.03
2018-07-27T16:16:24.601Z,4.97
2018-07-27T16:18:53.549Z,4.37
2018-07-27T16:21:22.620Z,4.30
2018-07-27T16:23:51.755Z,4.07
2018-07-27T16:26:20.871Z,4.30
2018-07-27T16:28:50.009Z,4.00
2018-07-27T16:31:18.870Z,3.97
2018-07-27T16:33:47.839Z,4.40
2018-07-27T16:36:17.565Z,4.43
2018-07-27T16:38:46.731Z,3.90
2018-07-27T16:41:15.852Z,3.77
2018-07-27T16:43:45.491Z,3.63
2018-07-27T16:46:14.619Z,4.30
2018-07-27T16:48:44.159Z,3.77
2018-07-27T16:51:13.277Z,4.23
2018-07-27T16:53:42.367Z,3.93
2018-07-27T16:56:11.417Z,3.50
2018-07-27T16:58:41.048Z,4.10
2018-07-27T17:01:10.895Z,4.47
2018-07-27T17:03:40.263Z,4.30
2018-07-27T17:06:10.658Z,4.30
2018-07-27T17:08:40.978Z,4.37
2018-07-27T17:11:12.185Z,4.03
2018-07-27T17:13:42.104Z,4.33
2018-07-27T17:16:12.115Z,4.80
2018-07-27T17:18:44.478Z,4.37
2018-07-27T17:21:16.377Z,4.83
2018-07-27T17:23:51.180Z,5.07
2018-07-27T17:26:25.580Z,5.13
2018-07-27T17:28:57.090Z,4.27
2018-07-27T17:31:26.834Z,6.03
2018-07-27T17:33:56.868Z,4.60
2018-07-27T17:36:27.579Z,4.20
2018-07-27T17:38:58.073Z,4.40
2018-07-27T17:41:27.216Z,4.63
2018-07-27T17:43:56.392Z,4.93
2018-07-27T17:46:25.514Z,4.20
2018-07-27T17:48:54.377Z,4.57
2018-07-27T17:51:23.579Z,4.93
2018-07-27T17:53:52.843Z,4.90
2018-07-27T17:56:21.923Z,16.80
2018-07-27T17:58:51.028Z,4.60
2018-07-27T18:01:20.128Z,4.97
2018-07-27T18:03:49.345Z,4.60
2018-07-27T18:06:18.542Z,4.57
2018-07-27T18:08:47.846Z,5.77
2018-07-27T18:11:17.045Z,4.70
2018-07-27T18:13:46.230Z,4.87
2018-07-27T18:16:15.373Z,4.60
2018-07-27T18:18:44.458Z,4.70
2018-07-27T18:21:13.379Z,4.70
2018-07-27T18:23:42.413Z,4.67
2018-07-27T18:26:11.555Z,5.23
2018-07-27T18:28:40.729Z,4.60
2018-07-27T18:31:09.536Z,4.50
2018-07-27T18:33:38.281Z,4.80
2018-07-27T18:36:07.352Z,4.97
2018-07-27T18:38:36.521Z,4.97
2018-07-27T18:41:05.591Z,5.00
2018-07-27T18:43:34.463Z,5.07
2018-07-27T18:46:03.455Z,5.30
2018-07-27T18:48:32.472Z,6.63
2018-07-27T18:51:01.601Z,5.17
2018-07-27T18:53:30.704Z,5.00
2018-07-27T18:55:59.794Z,5.90
2018-07-27T18:58:28.891Z,5.57
2018-07-27T19:00:57.947Z,5.77
2018-07-27T19:03:27.100Z,5.20
2018-07-27T19:05:56.227Z,5.97
2018-07-27T19:08:25.049Z,6.47
2018-07-27T19:10:54.025Z,5.57
2018-07-27T19:13:23.268Z,5.80
2018-07-27T19:15:52.430Z,7.83
2018-07-27T19:18:21.543Z,6.00
2018-07-27T19:20:50.677Z,5.73
2018-07-27T19:23:19.668Z,5.20
2018-07-27T19:25:48.674Z,5.70
2018-07-27T19:28:17.511Z,5.90
2018-07-27T19:30:46.489Z,5.70
2018-07-27T19:33:15.603Z,6.40
2018-07-27T19:35:45.314Z,6.07
2018-07-27T19:38:14.422Z,5.93
2018-07-27T19:40:43.597Z,6.70
2018-07-27T19:43:12.687Z,6.33
2018-07-27T19:45:41.822Z,6.07
2018-07-27T19:48:10.659Z,6.40
2018-07-27T19:50:39.695Z,6.97
2018-07-27T19:53:08.821Z,6.60
2018-07-27T19:55:37.984Z,6.60
2018-07-27T19:58:07.075Z,7.07
2018-07-27T20:00:36.185Z,6.47
2018-07-27T20:03:05.277Z,6.60
2018-07-27T20:05:34.219Z,6.40
2018-07-27T20:08:03.285Z,7.10
2018-07-27T20:10:32.323Z,7.07
2018-07-27T20:13:01.467Z,6.40
2018-07-27T20:15:30.618Z,6.77
2018-07-27T20:17:59.760Z,6.73
2018-07-27T20:20:28.903Z,7.40
2018-07-27T20:22:58.647Z,7.10
2018-07-27T20:25:27.551Z,7.60
2018-07-27T20:27:56.313Z,7.20
2018-07-27T20:30:25.273Z,6.27
2018-07-27T20:32:54.439Z,7.30
2018-07-27T20:35:23.526Z,5.63
2018-07-27T20:37:52.583Z,8.07
2018-07-27T20:40:21.848Z,5.30
2018-07-27T20:42:50.948Z,5.33
2018-07-27T20:45:20.063Z,5.43
2018-07-27T20:47:49.095Z,5.20
2018-07-27T20:50:18.248Z,6.90
2018-07-27T20:52:47.293Z,5.10
2018-07-27T20:55:16.375Z,6.20
2018-07-27T20:57:45.431Z,6.40
2018-07-27T21:00:14.870Z,5.63
2018-07-27T21:02:44.861Z,5.17
2018-07-27T21:05:14.501Z,5.30
2018-07-27T21:07:43.733Z,5.50
2018-07-27T21:10:13.579Z,6.13
2018-07-27T21:12:43.187Z,6.67
2018-07-27T21:15:12.763Z,5.40
2018-07-27T21:17:41.916Z,5.20
2018-07-27T21:20:11.019Z,5.30
2018-07-27T21:22:42.070Z,5.47
2018-07-27T21:25:13.269Z,5.80
2018-07-27T21:27:43.492Z,6.00
2018-07-27T21:30:12.774Z,5.70
2018-07-27T21:32:44.817Z,6.30
2018-07-27T21:35:14.070Z,5.80
2018-07-27T21:37:48.820Z,5.90
2018-07-27T21:40:19.389Z,5.90
2018-07-27T21:42:48.741Z,5.57
2018-07-27T21:45:18.095Z,6.30
2018-07-27T21:47:48.213Z,6.10
2018-07-27T21:50:17.882Z,5.70
2018-07-27T21:52:47.773Z,6.17
2018-07-27T21:55:18.529Z,6.33
2018-07-27T21:57:50.016Z,6.07
2018-07-27T22:00:24.476Z,6.00
2018-07-27T22:02:53.857Z,5.77
2018-07-27T22:05:22.911Z,5.73
2018-07-27T22:07:55.085Z,6.07
2018-07-27T22:10:24.615Z,5.80
2018-07-27T22:12:53.596Z,6.07
2018-07-27T22:15:24.444Z,6.00
2018-07-27T22:17:53.515Z,5.67
2018-07-27T22:20:23.612Z,5.87
2018-07-27T22:22:52.715Z,5.70
2018-07-27T22:25:21.589Z,6.07
2018-07-27T22:27:50.503Z,6.23
2018-07-27T22:30:19.385Z,6.47
2018-07-27T22:32:48.647Z,6.30
2018-07-27T22:35:17.714Z,5.80
2018-07-27T22:37:46.824Z,6.17
2018-07-27T22:40:15.884Z,5.87
2018-07-27T22:42:47.149Z,5.93
2018-07-27T22:45:24.023Z,6.00
2018-07-27T22:48:00.955Z,5.93
2018-07-27T22:50:34.059Z,6.10
2018-07-27T22:55:48.430Z,5.67
2018-07-27T22:58:22.004Z,6.17
2018-07-27T23:01:04.404Z,6.50
2018-07-27T23:03:40.504Z,6.90
2018-07-27T23:06:13.957Z,6.07
2018-07-27T23:08:47.777Z,5.70
2018-07-27T23:11:18.072Z,6.03
2018-07-27T23:13:47.431Z,7.03
2018-07-27T23:16:16.532Z,5.80
2018-07-27T23:18:45.633Z,5.40
2018-07-27T23:21:16.270Z,5.90
2018-07-27T23:23:45.410Z,5.60
2018-07-27T23:26:14.389Z,5.70
2018-07-27T23:28:43.524Z,6.27
2018-07-27T23:31:12.613Z,5.50
2018-07-27T23:33:41.810Z,5.43
2018-07-27T23:36:10.906Z,5.90
2018-07-27T23:38:40.056Z,5.23
2018-07-27T23:41:09.192Z,5.80
2018-07-27T23:43:38.327Z,5.40
2018-07-27T23:46:07.438Z,5.77
2018-07-27T23:48:36.525Z,5.83
2018-07-27T23:51:06.015Z,6.07
2018-07-27T23:53:35.129Z,5.63
2018-07-27T23:56:04.236Z,6.10
2018-07-27T23:58:33.384Z,5.63
